Terminal Aerodrome Forecast
Issued by NWS

Current Version | Previous Version | Graphics & Text | Print | Product List | Glossary On
Versions: 1 2 3 4 5 6 7 8 9 10 11 12 13 14 15 16 17 18 19 20
950
FTUS41 KILN 101024 AAA
TAFLUK
TAF AMD
KLUK 101024Z 1010/1106 27012KT P6SM -SHSN OVC040
      TEMPO 1010/1013 3SM -SHSN OVC028
     FM101300 28012G18KT 3SM -SHSN OVC025
     FM101700 28012G18KT P6SM OVC025
     FM102000 28012KT P6SM OVC035
     FM110300 29008KT P6SM BKN035=

USA.gov is the U.S. government's official web portal to all federal, state and local government web resources and services.